Crystal Symphony — C6MY5 — position and weather

sailwx.info

Track history (hours):
 
Tides and Currents Weather Stations Pressure Air Temp Water Temp Dewpoint Dewpoint Depression Visibility Wind Speed Wind Dir Waves Ship Positions

Crystal Symphony

Operator: Crystal Cruises

Last reported at 2020-Jan-18 18:00 UTC. Time now 2020-Jan-19 17:18 UTC.
Position N 21°54' W 156°00'.

Length 238 m; draft 8 m.

Type: Ship. MMSI: 309168000.

Wind from 030 at 24 knots

Barometer 1017.6 mb
Air temperature 22.2 ° C
Visibility: greater than 10.8 NM
Dewpoint 19.1 ° C
Water temperature 23.1 ° C

Date/timePositionNaut miles runAvg speedWind from/ knotsBaromVisibWave heightAir tempDewpointWater temp
2020-Jan-18 18:00N 21°54' W 156°00'19617.8 030 / 241017.610.8 22.219.123.1
2020-Jan-18 07:00N 23°18' W 152°48'23217.8 020 / 101015.1 5.4 21.918.622.7
2020-Jan-17 18:00N 24°48' W 148°54'26919.2 160 / 191013.310.8 22.8 22.2
2020-Jan-17 04:00N 26°30' W 144°18'   130 / 321014.510.8 20.0 21.0
2020-Jan-14 07:29N 32°20' W 119°15'2819.4
2020-Jan-14 06:00N 32°24' W 118°42'1019.1
2020-Jan-14 05:31N 32°26' W 118°31'7015.5
2020-Jan-14 01:01N 32°43' W 117°11'0 0.1
2020-Jan-13 20:28N 32°43' W 117°10'0 0.0
2020-Jan-13 18:00N 32°43' W 117°10'0 0.0
2020-Jan-13 16:59N 32°43' W 117°10'19 3.9
2020-Jan-13 12:00N 32°26' W 117°22'9 9.3
2020-Jan-13 11:00N 32°17' W 117°22'12 0.5
2020-Jan-12 11:05N 32°06' W 117°17'811.7
2020-Jan-12 10:25N 32°12' W 117°23'1711.8
2020-Jan-12 09:00N 32°23' W 117°38'611.3
2020-Jan-12 08:31N 32°27' W 117°43'1711.5
2020-Jan-12 07:00N 32°40' W 117°55'4511.3
2020-Jan-12 03:00N 33°21' W 118°19'0 0.0
2020-Jan-12 00:59N 33°21' W 118°19'0 0.0
2020-Jan-11 23:59N 33°21' W 118°19'0 0.0
2020-Jan-11 22:59N 33°21' W 118°19'0 0.0
2020-Jan-11 22:22N 33°21' W 118°19'0 0.0
2020-Jan-11 21:19N 33°21' W 118°19'0 0.0
2020-Jan-11 20:43N 33°21' W 118°19'0 0.0
2020-Jan-11 16:53N 33°21' W 118°19'0 0.1
2020-Jan-11 15:59N 33°21' W 118°19'41 8.3
2020-Jan-11 11:00N 33°21' W 119°08'4710.2
2020-Jan-11 06:27N 33°38' W 120°00'24710.5
2020-Jan-10 07:01N 36°54' W 123°03'6011.0
2020-Jan-10 01:30N 37°49' W 122°31'510.3
2020-Jan-10 01:00N 37°48' W 122°24'0 0.0
2020-Jan-09 22:26N 37°48' W 122°24'0 0.0
2020-Jan-09 19:00N 37°48' W 122°24'0 0.0
2020-Jan-09 17:29N 37°48' W 122°24'0 0.0
2020-Jan-09 14:28N 37°48' W 122°24'0 0.0
2020-Jan-09 09:29N 37°48' W 122°24'0 0.0
2020-Jan-09 08:59N 37°48' W 122°24'0 0.0
2020-Jan-09 08:28N 37°48' W 122°24'0 0.0
2020-Jan-09 03:29N 37°48' W 122°24'0 0.0
2020-Jan-09 02:29N 37°48' W 122°24'0 0.0
2020-Jan-08 21:00N 37°48' W 122°24'0 0.0
2020-Jan-08 20:29N 37°48' W 122°24'0 0.0
2020-Jan-08 19:26N 37°48' W 122°24'0 0.0
2020-Jan-08 18:59N 37°48' W 122°24'  
Track history (hours):
 
Tides and Currents Weather Stations Pressure Air Temp Water Temp Dewpoint Dewpoint Depression Visibility Wind Speed Wind Dir Waves Ship Positions

Crystal Symphony

Operator: Crystal Cruises

Last reported at 2020-Jan-18 18:00 UTC. Time now 2020-Jan-19 17:18 UTC.
Position N 21°54' W 156°00'.

Length 238 m; draft 8 m.

Type: Ship. MMSI: 309168000.

Wind from 030 at 24 knots

Barometer 1017.6 mb
Air temperature 22.2 ° C
Visibility: greater than 10.8 NM
Dewpoint 19.1 ° C
Water temperature 23.1 ° C

Date/timePositionNaut miles runAvg speedWind from/ knotsBaromVisibWave heightAir tempDewpointWater temp
2020-Jan-18 18:00N 21°54' W 156°00'19617.8 030 / 241017.610.8 22.219.123.1
2020-Jan-18 07:00N 23°18' W 152°48'23217.8 020 / 101015.1 5.4 21.918.622.7
2020-Jan-17 18:00N 24°48' W 148°54'26919.2 160 / 191013.310.8 22.8 22.2
2020-Jan-17 04:00N 26°30' W 144°18'   130 / 321014.510.8 20.0 21.0
2020-Jan-14 07:29N 32°20' W 119°15'2819.4
2020-Jan-14 06:00N 32°24' W 118°42'1019.1
2020-Jan-14 05:31N 32°26' W 118°31'7015.5
2020-Jan-14 01:01N 32°43' W 117°11'0 0.1
2020-Jan-13 20:28N 32°43' W 117°10'0 0.0
2020-Jan-13 18:00N 32°43' W 117°10'0 0.0
2020-Jan-13 16:59N 32°43' W 117°10'19 3.9
2020-Jan-13 12:00N 32°26' W 117°22'9 9.3
2020-Jan-13 11:00N 32°17' W 117°22'12 0.5
2020-Jan-12 11:05N 32°06' W 117°17'811.7
2020-Jan-12 10:25N 32°12' W 117°23'1711.8
2020-Jan-12 09:00N 32°23' W 117°38'611.3
2020-Jan-12 08:31N 32°27' W 117°43'1711.5
2020-Jan-12 07:00N 32°40' W 117°55'4511.3
2020-Jan-12 03:00N 33°21' W 118°19'0 0.0
2020-Jan-12 00:59N 33°21' W 118°19'0 0.0
2020-Jan-11 23:59N 33°21' W 118°19'0 0.0
2020-Jan-11 22:59N 33°21' W 118°19'0 0.0
2020-Jan-11 22:22N 33°21' W 118°19'0 0.0
2020-Jan-11 21:19N 33°21' W 118°19'0 0.0
2020-Jan-11 20:43N 33°21' W 118°19'0 0.0
2020-Jan-11 16:53N 33°21' W 118°19'0 0.1
2020-Jan-11 15:59N 33°21' W 118°19'41 8.3
2020-Jan-11 11:00N 33°21' W 119°08'4710.2
2020-Jan-11 06:27N 33°38' W 120°00'24710.5
2020-Jan-10 07:01N 36°54' W 123°03'6011.0
2020-Jan-10 01:30N 37°49' W 122°31'510.3
2020-Jan-10 01:00N 37°48' W 122°24'0 0.0
2020-Jan-09 22:26N 37°48' W 122°24'0 0.0
2020-Jan-09 19:00N 37°48' W 122°24'0 0.0
2020-Jan-09 17:29N 37°48' W 122°24'0 0.0
2020-Jan-09 14:28N 37°48' W 122°24'0 0.0
2020-Jan-09 09:29N 37°48' W 122°24'0 0.0
2020-Jan-09 08:59N 37°48' W 122°24'0 0.0
2020-Jan-09 08:28N 37°48' W 122°24'0 0.0
2020-Jan-09 03:29N 37°48' W 122°24'0 0.0
2020-Jan-09 02:29N 37°48' W 122°24'0 0.0
2020-Jan-08 21:00N 37°48' W 122°24'0 0.0
2020-Jan-08 20:29N 37°48' W 122°24'0 0.0
2020-Jan-08 19:26N 37°48' W 122°24'0 0.0
2020-Jan-08 18:59N 37°48' W 122°24'  

Dump ship's entire track history